Terminal Aerodrome Forecast
Issued by NWS

Home | Current Version | Previous Version | Text Only | Print | Product List | Glossary Off
Versions: 1 2 3 4 5 6 7 8 9 10 11 12 13

000
FTUS45 KGGW 131100 RRA
TAFOLF
TAF
KOLF 131142Z 1312/1412 32008KT P6SM FEW150
     FM131700 32013KT P6SM SCT080
     FM140300 VRB03KT P6SM SKC=

USA.gov is the U.S. government's official web portal to all federal, state and local government web resources and services.